sensor_id;sensor_type;location;lat;lon;timestamp;pressure;altitude;pressure_sealevel;temperature;humidity
67740;BME280;54536;50.090;14.420;2023-12-28T00:01:38;99596.31;;;8.18;60.86
67740;BME280;54536;50.090;14.420;2023-12-28T00:04:04;99591.75;;;8.20;60.54
67740;BME280;54536;50.090;14.420;2023-12-28T00:06:30;99585.31;;;8.13;60.33
67740;BME280;54536;50.090;14.420;2023-12-28T00:08:56;99598.66;;;8.10;61.07
67740;BME280;54536;50.090;14.420;2023-12-28T00:11:22;99586.53;;;8.20;60.90
67740;BME280;54536;50.090;14.420;2023-12-28T00:13:49;99587.63;;;8.17;60.63
67740;BME280;54536;50.090;14.420;2023-12-28T00:16:15;99583.84;;;7.97;61.10
67740;BME280;54536;50.090;14.420;2023-12-28T00:18:41;99590.63;;;7.89;61.65
67740;BME280;54536;50.090;14.420;2023-12-28T00:21:07;99585.09;;;8.05;61.32
67740;BME280;54536;50.090;14.420;2023-12-28T00:23:32;99582.88;;;7.87;61.53
67740;BME280;54536;50.090;14.420;2023-12-28T00:25:59;99582.19;;;7.96;61.66
67740;BME280;54536;50.090;14.420;2023-12-28T00:28:24;99581.88;;;8.12;61.37
67740;BME280;54536;50.090;14.420;2023-12-28T00:30:51;99580.09;;;8.13;61.47
67740;BME280;54536;50.090;14.420;2023-12-28T00:33:17;99590.66;;;8.00;61.15
67740;BME280;54536;50.090;14.420;2023-12-28T00:35:43;99585.56;;;8.10;60.83
67740;BME280;54536;50.090;14.420;2023-12-28T00:38:09;99585.09;;;8.16;60.68
67740;BME280;54536;50.090;14.420;2023-12-28T00:40:35;99579.41;;;8.22;60.91
67740;BME280;54536;50.090;14.420;2023-12-28T00:43:01;99580.81;;;8.15;60.58
67740;BME280;54536;50.090;14.420;2023-12-28T00:45:27;99577.25;;;8.16;60.12
67740;BME280;54536;50.090;14.420;2023-12-28T00:47:53;99570.44;;;8.13;60.84
67740;BME280;54536;50.090;14.420;2023-12-28T00:50:22;99576.28;;;8.06;60.62
67740;BME280;54536;50.090;14.420;2023-12-28T00:52:48;99582.19;;;7.96;60.62
67740;BME280;54536;50.090;14.420;2023-12-28T00:55:14;99578.16;;;7.92;60.92
67740;BME280;54536;50.090;14.420;2023-12-28T00:57:40;99578.47;;;7.88;60.39
67740;BME280;54536;50.090;14.420;2023-12-28T01:00:07;99581.72;;;7.91;60.23
67740;BME280;54536;50.090;14.420;2023-12-28T01:02:33;99581.81;;;7.90;60.30
67740;BME280;54536;50.090;14.420;2023-12-28T01:04:59;99583.06;;;7.73;61.28
67740;BME280;54536;50.090;14.420;2023-12-28T01:07:25;99572.56;;;7.97;60.93
67740;BME280;54536;50.090;14.420;2023-12-28T01:09:51;99557.66;;;7.97;59.99
67740;BME280;54536;50.090;14.420;2023-12-28T01:12:17;99555.78;;;7.88;60.88
67740;BME280;54536;50.090;14.420;2023-12-28T01:14:43;99552.03;;;7.68;61.22
67740;BME280;54536;50.090;14.420;2023-12-28T01:17:09;99565.28;;;7.89;60.75
67740;BME280;54536;50.090;14.420;2023-12-28T01:19:35;99563.25;;;7.93;60.99
67740;BME280;54536;50.090;14.420;2023-12-28T01:22:01;99567.25;;;7.74;61.40
67740;BME280;54536;50.090;14.420;2023-12-28T01:24:27;99575.16;;;7.86;61.45
67740;BME280;54536;50.090;14.420;2023-12-28T01:26:53;99587.06;;;7.90;60.68
67740;BME280;54536;50.090;14.420;2023-12-28T01:29:19;99595.56;;;7.69;61.02
67740;BME280;54536;50.090;14.420;2023-12-28T01:31:45;99593.09;;;7.55;61.12
67740;BME280;54536;50.090;14.420;2023-12-28T01:34:12;99594.59;;;7.70;60.97
67740;BME280;54536;50.090;14.420;2023-12-28T01:36:38;99603.00;;;7.39;61.56
67740;BME280;54536;50.090;14.420;2023-12-28T01:39:07;99607.56;;;7.48;61.36
67740;BME280;54536;50.090;14.420;2023-12-28T01:41:33;99609.03;;;7.28;61.98
67740;BME280;54536;50.090;14.420;2023-12-28T01:43:59;99598.63;;;7.39;62.29
67740;BME280;54536;50.090;14.420;2023-12-28T01:46:25;99594.50;;;7.48;61.94
67740;BME280;54536;50.090;14.420;2023-12-28T01:48:52;99592.63;;;7.50;62.22
67740;BME280;54536;50.090;14.420;2023-12-28T01:51:20;99582.97;;;7.50;61.83
67740;BME280;54536;50.090;14.420;2023-12-28T01:53:49;99569.72;;;7.65;61.91
67740;BME280;54536;50.090;14.420;2023-12-28T01:56:18;99578.63;;;7.38;62.02
67740;BME280;54536;50.090;14.420;2023-12-28T01:58:46;99569.97;;;7.38;62.46
67740;BME280;54536;50.090;14.420;2023-12-28T02:01:14;99571.69;;;7.50;61.71
67740;BME280;54536;50.090;14.420;2023-12-28T02:03:41;99578.97;;;7.34;62.32
67740;BME280;54536;50.090;14.420;2023-12-28T02:06:07;99584.88;;;7.24;62.37
67740;BME280;54536;50.090;14.420;2023-12-28T02:08:33;99583.91;;;7.25;62.19
67740;BME280;54536;50.090;14.420;2023-12-28T02:11:00;99570.44;;;7.19;62.58
67740;BME280;54536;50.090;14.420;2023-12-28T02:13:26;99566.78;;;7.21;63.45
67740;BME280;54536;50.090;14.420;2023-12-28T02:15:58;99562.16;;;7.25;62.15
67740;BME280;54536;50.090;14.420;2023-12-28T02:18:37;99542.59;;;7.31;62.47
67740;BME280;54536;50.090;14.420;2023-12-28T02:21:06;99554.66;;;7.20;62.50
67740;BME280;54536;50.090;14.420;2023-12-28T02:23:33;99564.13;;;7.10;62.96
67740;BME280;54536;50.090;14.420;2023-12-28T02:25:59;99547.22;;;7.27;63.26
67740;BME280;54536;50.090;14.420;2023-12-28T02:28:25;99556.09;;;7.24;62.55
67740;BME280;54536;50.090;14.420;2023-12-28T02:30:51;99554.31;;;7.49;62.17
67740;BME280;54536;50.090;14.420;2023-12-28T02:33:29;99559.72;;;7.35;61.74
67740;BME280;54536;50.090;14.420;2023-12-28T02:36:07;99549.38;;;7.33;61.88
67740;BME280;54536;50.090;14.420;2023-12-28T02:38:38;99557.81;;;7.13;62.81
67740;BME280;54536;50.090;14.420;2023-12-28T02:41:06;99548.91;;;7.15;63.04
67740;BME280;54536;50.090;14.420;2023-12-28T02:43:32;99549.97;;;7.13;62.74
67740;BME280;54536;50.090;14.420;2023-12-28T02:45:59;99542.41;;;7.21;62.26
67740;BME280;54536;50.090;14.420;2023-12-28T02:48:25;99530.50;;;7.17;62.52
67740;BME280;54536;50.090;14.420;2023-12-28T02:50:52;99521.88;;;7.27;61.98
67740;BME280;54536;50.090;14.420;2023-12-28T02:53:18;99514.53;;;7.09;62.13
67740;BME280;54536;50.090;14.420;2023-12-28T02:55:44;99500.97;;;7.03;62.32
67740;BME280;54536;50.090;14.420;2023-12-28T02:58:10;99508.31;;;6.98;62.98
67740;BME280;54536;50.090;14.420;2023-12-28T03:00:36;99505.28;;;7.16;62.00
67740;BME280;54536;50.090;14.420;2023-12-28T03:03:03;99480.88;;;7.28;62.74
67740;BME280;54536;50.090;14.420;2023-12-28T03:05:29;99488.53;;;7.18;62.12
67740;BME280;54536;50.090;14.420;2023-12-28T03:07:55;99486.78;;;6.95;62.49
67740;BME280;54536;50.090;14.420;2023-12-28T03:10:24;99475.66;;;7.04;62.79
67740;BME280;54536;50.090;14.420;2023-12-28T03:12:50;99485.56;;;6.88;62.49
67740;BME280;54536;50.090;14.420;2023-12-28T03:15:15;99499.50;;;6.75;63.13
67740;BME280;54536;50.090;14.420;2023-12-28T03:17:42;99488.31;;;6.73;62.86
67740;BME280;54536;50.090;14.420;2023-12-28T03:20:09;99494.75;;;6.93;63.21
67740;BME280;54536;50.090;14.420;2023-12-28T03:22:36;99504.97;;;6.60;63.67
67740;BME280;54536;50.090;14.420;2023-12-28T03:25:02;99521.94;;;6.54;63.50
67740;BME280;54536;50.090;14.420;2023-12-28T03:27:29;99535.63;;;6.57;63.18
67740;BME280;54536;50.090;14.420;2023-12-28T03:29:55;99527.22;;;6.65;63.47
67740;BME280;54536;50.090;14.420;2023-12-28T03:32:21;99520.63;;;6.72;62.97
67740;BME280;54536;50.090;14.420;2023-12-28T03:34:47;99520.97;;;6.55;62.78
67740;BME280;54536;50.090;14.420;2023-12-28T03:37:13;99528.66;;;6.69;62.61
67740;BME280;54536;50.090;14.420;2023-12-28T03:39:39;99538.81;;;6.74;61.95
67740;BME280;54536;50.090;14.420;2023-12-28T03:42:05;99527.06;;;6.79;62.07
67740;BME280;54536;50.090;14.420;2023-12-28T03:44:31;99519.06;;;6.70;62.13
67740;BME280;54536;50.090;14.420;2023-12-28T03:46:57;99514.59;;;6.59;62.18
67740;BME280;54536;50.090;14.420;2023-12-28T03:49:23;99515.78;;;6.79;62.87
67740;BME280;54536;50.090;14.420;2023-12-28T03:51:50;99514.69;;;6.94;62.20
67740;BME280;54536;50.090;14.420;2023-12-28T03:54:17;99511.09;;;6.84;61.90
67740;BME280;54536;50.090;14.420;2023-12-28T03:56:43;99515.34;;;6.85;61.92
67740;BME280;54536;50.090;14.420;2023-12-28T03:59:10;99513.47;;;6.87;62.51
67740;BME280;54536;50.090;14.420;2023-12-28T04:01:36;99508.88;;;6.91;62.41
67740;BME280;54536;50.090;14.420;2023-12-28T04:04:02;99504.94;;;6.72;62.86
67740;BME280;54536;50.090;14.420;2023-12-28T04:06:29;99508.13;;;6.89;62.49
67740;BME280;54536;50.090;14.420;2023-12-28T04:08:55;99508.53;;;6.95;62.79
67740;BME280;54536;50.090;14.420;2023-12-28T04:11:21;99507.34;;;6.75;62.59
67740;BME280;54536;50.090;14.420;2023-12-28T04:13:47;99517.19;;;6.72;62.68
67740;BME280;54536;50.090;14.420;2023-12-28T04:16:14;99500.31;;;6.76;62.36
67740;BME280;54536;50.090;14.420;2023-12-28T04:18:42;99498.09;;;6.59;62.95
67740;BME280;54536;50.090;14.420;2023-12-28T04:21:12;99502.91;;;6.52;63.28
67740;BME280;54536;50.090;14.420;2023-12-28T04:23:40;99490.50;;;6.43;63.15
67740;BME280;54536;50.090;14.420;2023-12-28T04:26:07;99490.28;;;6.46;63.21
67740;BME280;54536;50.090;14.420;2023-12-28T04:28:33;99492.50;;;6.26;64.11
67740;BME280;54536;50.090;14.420;2023-12-28T04:31:04;99493.59;;;6.61;62.69
67740;BME280;54536;50.090;14.420;2023-12-28T04:33:30;99478.63;;;6.63;62.06
67740;BME280;54536;50.090;14.420;2023-12-28T04:36:00;99484.41;;;6.55;62.65
67740;BME280;54536;50.090;14.420;2023-12-28T04:38:26;99479.75;;;6.71;61.38
67740;BME280;54536;50.090;14.420;2023-12-28T04:40:52;99486.03;;;6.69;62.14
67740;BME280;54536;50.090;14.420;2023-12-28T04:43:18;99503.56;;;6.79;61.45
67740;BME280;54536;50.090;14.420;2023-12-28T04:45:44;99522.63;;;6.93;60.71
67740;BME280;54536;50.090;14.420;2023-12-28T04:48:10;99523.81;;;6.89;60.44
67740;BME280;54536;50.090;14.420;2023-12-28T04:50:36;99512.50;;;6.64;61.34
67740;BME280;54536;50.090;14.420;2023-12-28T04:53:03;99511.56;;;6.65;62.24
67740;BME280;54536;50.090;14.420;2023-12-28T04:55:29;99511.63;;;6.64;61.98
67740;BME280;54536;50.090;14.420;2023-12-28T04:57:55;99520.84;;;6.56;61.57
67740;BME280;54536;50.090;14.420;2023-12-28T05:00:21;99514.69;;;6.70;61.28
67740;BME280;54536;50.090;14.420;2023-12-28T05:02:47;99528.28;;;6.50;61.44
67740;BME280;54536;50.090;14.420;2023-12-28T05:05:13;99527.88;;;6.56;61.61
67740;BME280;54536;50.090;14.420;2023-12-28T05:07:40;99529.88;;;6.52;61.79
67740;BME280;54536;50.090;14.420;2023-12-28T05:10:07;99530.59;;;6.67;61.48
67740;BME280;54536;50.090;14.420;2023-12-28T05:12:33;99526.31;;;6.53;61.77
67740;BME280;54536;50.090;14.420;2023-12-28T05:14:59;99529.94;;;6.64;62.68
67740;BME280;54536;50.090;14.420;2023-12-28T05:17:25;99543.28;;;6.22;62.65
67740;BME280;54536;50.090;14.420;2023-12-28T05:19:52;99538.47;;;6.29;62.13
67740;BME280;54536;50.090;14.420;2023-12-28T05:22:17;99541.91;;;6.29;62.17
67740;BME280;54536;50.090;14.420;2023-12-28T05:24:44;99544.22;;;6.21;63.24
67740;BME280;54536;50.090;14.420;2023-12-28T05:27:09;99538.53;;;6.40;62.65
67740;BME280;54536;50.090;14.420;2023-12-28T05:29:36;99540.34;;;6.27;62.77
67740;BME280;54536;50.090;14.420;2023-12-28T05:32:02;99537.22;;;6.35;61.83
67740;BME280;54536;50.090;14.420;2023-12-28T05:34:28;99540.03;;;6.19;62.02
67740;BME280;54536;50.090;14.420;2023-12-28T05:36:54;99540.25;;;6.28;61.98
67740;BME280;54536;50.090;14.420;2023-12-28T05:39:25;99550.28;;;6.35;63.32
67740;BME280;54536;50.090;14.420;2023-12-28T05:41:51;99541.16;;;6.27;61.86
67740;BME280;54536;50.090;14.420;2023-12-28T05:44:17;99540.53;;;6.24;62.49
67740;BME280;54536;50.090;14.420;2023-12-28T05:46:43;99544.38;;;6.44;62.08
67740;BME280;54536;50.090;14.420;2023-12-28T05:49:09;99539.06;;;6.45;61.68
67740;BME280;54536;50.090;14.420;2023-12-28T05:51:39;99532.59;;;6.38;61.84
67740;BME280;54536;50.090;14.420;2023-12-28T05:54:08;99540.53;;;6.11;62.31
67740;BME280;54536;50.090;14.420;2023-12-28T05:56:34;99550.34;;;6.20;62.71
67740;BME280;54536;50.090;14.420;2023-12-28T05:59:00;99562.56;;;6.07;62.80
67740;BME280;54536;50.090;14.420;2023-12-28T06:01:27;99564.16;;;6.09;63.38
67740;BME280;54536;50.090;14.420;2023-12-28T06:03:53;99562.16;;;6.13;63.28
67740;BME280;54536;50.090;14.420;2023-12-28T06:06:20;99551.72;;;6.13;62.77
67740;BME280;54536;50.090;14.420;2023-12-28T06:08:46;99541.91;;;6.04;63.63
67740;BME280;54536;50.090;14.420;2023-12-28T06:11:12;99546.38;;;6.27;62.78
67740;BME280;54536;50.090;14.420;2023-12-28T06:13:38;99544.84;;;6.25;63.41
67740;BME280;54536;50.090;14.420;2023-12-28T06:16:04;99547.53;;;6.23;62.28
67740;BME280;54536;50.090;14.420;2023-12-28T06:18:30;99537.63;;;6.28;62.42
67740;BME280;54536;50.090;14.420;2023-12-28T06:20:56;99522.25;;;6.37;62.18
67740;BME280;54536;50.090;14.420;2023-12-28T06:23:23;99524.25;;;6.20;62.54
67740;BME280;54536;50.090;14.420;2023-12-28T06:25:49;99531.44;;;6.42;62.55
67740;BME280;54536;50.090;14.420;2023-12-28T06:28:16;99536.81;;;6.28;62.37
67740;BME280;54536;50.090;14.420;2023-12-28T06:30:41;99532.72;;;6.24;61.90
67740;BME280;54536;50.090;14.420;2023-12-28T06:33:08;99534.41;;;6.25;62.12
67740;BME280;54536;50.090;14.420;2023-12-28T06:35:33;99529.81;;;6.16;62.02
67740;BME280;54536;50.090;14.420;2023-12-28T06:38:00;99531.78;;;5.99;61.91
67740;BME280;54536;50.090;14.420;2023-12-28T06:40:28;99532.63;;;6.25;61.28
67740;BME280;54536;50.090;14.420;2023-12-28T06:42:54;99528.94;;;6.41;62.44
67740;BME280;54536;50.090;14.420;2023-12-28T06:45:20;99528.28;;;6.50;60.68
67740;BME280;54536;50.090;14.420;2023-12-28T06:47:48;99522.56;;;6.57;60.54
67740;BME280;54536;50.090;14.420;2023-12-28T06:50:14;99530.59;;;6.67;59.58
67740;BME280;54536;50.090;14.420;2023-12-28T06:52:40;99536.09;;;6.63;59.26
67740;BME280;54536;50.090;14.420;2023-12-28T06:55:06;99535.34;;;6.73;59.49
67740;BME280;54536;50.090;14.420;2023-12-28T06:57:32;99537.22;;;6.84;58.74
67740;BME280;54536;50.090;14.420;2023-12-28T06:59:58;99544.13;;;6.72;58.21
67740;BME280;54536;50.090;14.420;2023-12-28T07:02:27;99540.47;;;6.75;58.35
67740;BME280;54536;50.090;14.420;2023-12-28T07:04:53;99525.84;;;6.72;58.08
67740;BME280;54536;50.090;14.420;2023-12-28T07:07:20;99528.94;;;6.90;59.76
67740;BME280;54536;50.090;14.420;2023-12-28T07:09:46;99527.78;;;6.94;59.13
67740;BME280;54536;50.090;14.420;2023-12-28T07:12:12;99516.38;;;6.95;58.14
67740;BME280;54536;50.090;14.420;2023-12-28T07:14:38;99524.56;;;6.91;59.41
67740;BME280;54536;50.090;14.420;2023-12-28T07:17:04;99531.56;;;6.90;58.33
67740;BME280;54536;50.090;14.420;2023-12-28T07:19:30;99524.81;;;6.99;57.83
67740;BME280;54536;50.090;14.420;2023-12-28T07:21:56;99529.72;;;7.03;58.42
67740;BME280;54536;50.090;14.420;2023-12-28T07:24:23;99533.41;;;7.01;58.67
67740;BME280;54536;50.090;14.420;2023-12-28T07:26:50;99535.34;;;7.10;58.75
67740;BME280;54536;50.090;14.420;2023-12-28T07:29:16;99535.13;;;7.13;57.64
67740;BME280;54536;50.090;14.420;2023-12-28T07:31:42;99543.38;;;7.20;57.96
67740;BME280;54536;50.090;14.420;2023-12-28T07:34:08;99550.22;;;7.34;57.51
67740;BME280;54536;50.090;14.420;2023-12-28T07:36:35;99564.25;;;7.33;58.77
67740;BME280;54536;50.090;14.420;2023-12-28T07:39:00;99568.97;;;7.27;59.56
67740;BME280;54536;50.090;14.420;2023-12-28T07:41:26;99578.84;;;7.35;58.68
67740;BME280;54536;50.090;14.420;2023-12-28T07:43:52;99575.91;;;7.40;58.49
67740;BME280;54536;50.090;14.420;2023-12-28T07:46:18;99571.63;;;7.39;58.84
67740;BME280;54536;50.090;14.420;2023-12-28T07:48:44;99566.50;;;7.37;59.03
67740;BME280;54536;50.090;14.420;2023-12-28T07:51:13;99554.19;;;7.50;59.80
67740;BME280;54536;50.090;14.420;2023-12-28T07:53:39;99554.66;;;7.44;58.80
67740;BME280;54536;50.090;14.420;2023-12-28T07:56:05;99559.94;;;7.56;58.68
67740;BME280;54536;50.090;14.420;2023-12-28T07:58:31;99575.50;;;7.57;58.56
67740;BME280;54536;50.090;14.420;2023-12-28T08:00:57;99577.19;;;7.58;59.75
67740;BME280;54536;50.090;14.420;2023-12-28T08:03:23;99575.69;;;7.67;59.51
67740;BME280;54536;50.090;14.420;2023-12-28T08:05:49;99586.59;;;7.61;58.83
67740;BME280;54536;50.090;14.420;2023-12-28T08:08:15;99589.28;;;7.72;58.95
67740;BME280;54536;50.090;14.420;2023-12-28T08:10:41;99575.69;;;7.67;59.29
67740;BME280;54536;50.090;14.420;2023-12-28T08:13:07;99576.06;;;7.73;59.55
67740;BME280;54536;50.090;14.420;2023-12-28T08:15:34;99574.94;;;7.89;58.33
67740;BME280;54536;50.090;14.420;2023-12-28T08:17:59;99561.38;;;7.95;58.18
67740;BME280;54536;50.090;14.420;2023-12-28T08:20:25;99542.47;;;8.14;57.80
67740;BME280;54536;50.090;14.420;2023-12-28T08:22:51;99528.91;;;8.20;54.90
67740;BME280;54536;50.090;14.420;2023-12-28T08:25:18;99522.97;;;8.29;52.84
67740;BME280;54536;50.090;14.420;2023-12-28T08:27:44;99539.69;;;8.51;51.91
67740;BME280;54536;50.090;14.420;2023-12-28T08:30:11;99535.00;;;8.65;51.83
67740;BME280;54536;50.090;14.420;2023-12-28T08:32:37;99548.13;;;8.77;50.73
67740;BME280;54536;50.090;14.420;2023-12-28T08:35:04;99549.75;;;8.89;50.46
67740;BME280;54536;50.090;14.420;2023-12-28T08:37:29;99539.84;;;8.93;50.07
67740;BME280;54536;50.090;14.420;2023-12-28T08:39:56;99527.44;;;9.06;50.10
67740;BME280;54536;50.090;14.420;2023-12-28T08:42:22;99520.75;;;9.02;51.21
67740;BME280;54536;50.090;14.420;2023-12-28T08:44:50;99519.78;;;9.14;50.95
67740;BME280;54536;50.090;14.420;2023-12-28T08:47:17;99502.97;;;9.17;50.44
67740;BME280;54536;50.090;14.420;2023-12-28T08:49:43;99513.06;;;9.21;50.98
67740;BME280;54536;50.090;14.420;2023-12-28T08:52:09;99536.66;;;9.32;50.65
67740;BME280;54536;50.090;14.420;2023-12-28T08:54:36;99536.75;;;9.42;51.03
67740;BME280;54536;50.090;14.420;2023-12-28T08:57:02;99539.31;;;9.53;50.45
67740;BME280;54536;50.090;14.420;2023-12-28T08:59:28;99533.19;;;9.64;50.68
67740;BME280;54536;50.090;14.420;2023-12-28T09:01:54;99539.97;;;9.67;50.91
67740;BME280;54536;50.090;14.420;2023-12-28T09:04:20;99551.31;;;9.67;51.15
67740;BME280;54536;50.090;14.420;2023-12-28T09:06:46;99542.09;;;9.73;51.13
67740;BME280;54536;50.090;14.420;2023-12-28T09:09:13;99540.19;;;9.75;51.27
67740;BME280;54536;50.090;14.420;2023-12-28T09:11:39;99562.84;;;9.76;51.57
67740;BME280;54536;50.090;14.420;2023-12-28T09:14:05;99559.25;;;9.77;51.89
67740;BME280;54536;50.090;14.420;2023-12-28T09:16:31;99578.72;;;9.74;51.53
67740;BME280;54536;50.090;14.420;2023-12-28T09:18:57;99572.72;;;9.83;51.28
67740;BME280;54536;50.090;14.420;2023-12-28T09:21:23;99571.88;;;9.83;51.28
67740;BME280;54536;50.090;14.420;2023-12-28T09:23:49;99567.78;;;9.90;51.84
67740;BME280;54536;50.090;14.420;2023-12-28T09:26:15;99576.63;;;9.89;51.10
67740;BME280;54536;50.090;14.420;2023-12-28T09:28:41;99578.09;;;10.03;53.50
67740;BME280;54536;50.090;14.420;2023-12-28T09:31:07;99568.06;;;10.08;51.31
67740;BME280;54536;50.090;14.420;2023-12-28T09:33:33;99560.84;;;10.10;51.19
67740;BME280;54536;50.090;14.420;2023-12-28T09:36:00;99563.22;;;10.13;51.28
67740;BME280;54536;50.090;14.420;2023-12-28T09:38:28;99558.44;;;10.18;51.95
67740;BME280;54536;50.090;14.420;2023-12-28T09:40:58;99541.66;;;10.30;51.90
67740;BME280;54536;50.090;14.420;2023-12-28T09:43:31;99522.59;;;10.38;53.51
67740;BME280;54536;50.090;14.420;2023-12-28T09:46:07;99516.41;;;10.49;53.49
67740;BME280;54536;50.090;14.420;2023-12-28T09:48:37;99506.75;;;10.59;53.58
67740;BME280;54536;50.090;14.420;2023-12-28T09:51:06;99513.44;;;10.73;54.94
67740;BME280;54536;50.090;14.420;2023-12-28T09:53:32;99522.19;;;10.83;53.40
67740;BME280;54536;50.090;14.420;2023-12-28T09:55:59;99527.88;;;10.88;53.80
67740;BME280;54536;50.090;14.420;2023-12-28T09:58:26;99530.66;;;10.96;53.31
67740;BME280;54536;50.090;14.420;2023-12-28T10:00:54;99537.50;;;11.09;52.94
67740;BME280;54536;50.090;14.420;2023-12-28T10:03:20;99548.44;;;11.14;53.17
67740;BME280;54536;50.090;14.420;2023-12-28T10:05:47;99554.81;;;11.21;52.82
67740;BME280;54536;50.090;14.420;2023-12-28T10:08:16;99566.88;;;11.23;53.07
67740;BME280;54536;50.090;14.420;2023-12-28T10:10:44;99575.06;;;11.30;52.72
67740;BME280;54536;50.090;14.420;2023-12-28T10:13:16;99563.00;;;11.37;52.17
67740;BME280;54536;50.090;14.420;2023-12-28T10:15:43;99570.22;;;11.45;52.54
67740;BME280;54536;50.090;14.420;2023-12-28T10:18:09;99554.44;;;11.45;52.76
67740;BME280;54536;50.090;14.420;2023-12-28T10:20:35;99528.94;;;11.45;52.19
67740;BME280;54536;50.090;14.420;2023-12-28T10:23:01;99530.84;;;11.43;52.65
67740;BME280;54536;50.090;14.420;2023-12-28T10:25:28;99531.00;;;11.52;52.05
67740;BME280;54536;50.090;14.420;2023-12-28T10:27:54;99531.84;;;11.52;52.68
67740;BME280;54536;50.090;14.420;2023-12-28T10:30:21;99545.41;;;11.57;52.38
67740;BME280;54536;50.090;14.420;2023-12-28T10:32:47;99540.84;;;11.59;52.98
67740;BME280;54536;50.090;14.420;2023-12-28T10:35:14;99546.66;;;11.72;54.26
67740;BME280;54536;50.090;14.420;2023-12-28T10:37:43;99544.28;;;11.79;52.34
67740;BME280;54536;50.090;14.420;2023-12-28T10:40:14;99540.97;;;11.77;52.01
67740;BME280;54536;50.090;14.420;2023-12-28T10:43:02;99540.16;;;11.86;53.94
67740;BME280;54536;50.090;14.420;2023-12-28T10:45:32;99529.31;;;11.80;51.67
67740;BME280;54536;50.090;14.420;2023-12-28T10:50:29;99526.56;;;11.91;51.72
67740;BME280;54536;50.090;14.420;2023-12-28T10:53:08;99529.47;;;11.98;54.11
67740;BME280;54536;50.090;14.420;2023-12-28T10:55:40;99530.97;;;12.10;53.45
67740;BME280;54536;50.090;14.420;2023-12-28T11:00:43;99545.09;;;12.09;50.70
67740;BME280;54536;50.090;14.420;2023-12-28T11:03:19;99530.97;;;12.10;50.12
67740;BME280;54536;50.090;14.420;2023-12-28T11:05:51;99543.84;;;12.03;49.80
67740;BME280;54536;50.090;14.420;2023-12-28T11:08:20;99533.16;;;12.14;51.00
67740;BME280;54536;50.090;14.420;2023-12-28T11:10:49;99536.50;;;12.16;50.60
67740;BME280;54536;50.090;14.420;2023-12-28T11:13:18;99542.72;;;12.15;49.13
67740;BME280;54536;50.090;14.420;2023-12-28T11:15:47;99536.19;;;12.19;49.69
67740;BME280;54536;50.090;14.420;2023-12-28T11:18:15;99517.91;;;12.18;49.00
67740;BME280;54536;50.090;14.420;2023-12-28T11:20:43;99523.72;;;12.22;49.06
67740;BME280;54536;50.090;14.420;2023-12-28T11:23:11;99525.25;;;12.14;49.35
67740;BME280;54536;50.090;14.420;2023-12-28T11:25:38;99517.47;;;12.13;49.51
67740;BME280;54536;50.090;14.420;2023-12-28T11:28:11;99506.25;;;12.11;49.72
67740;BME280;54536;50.090;14.420;2023-12-28T11:30:38;99504.75;;;12.08;49.41
67740;BME280;54536;50.090;14.420;2023-12-28T11:33:04;99491.56;;;12.08;49.55
67740;BME280;54536;50.090;14.420;2023-12-28T11:35:34;99486.16;;;12.10;49.10
67740;BME280;54536;50.090;14.420;2023-12-28T11:38:03;99486.84;;;12.12;49.17
67740;BME280;54536;50.090;14.420;2023-12-28T11:40:40;99491.09;;;12.23;50.01
67740;BME280;54536;50.090;14.420;2023-12-28T11:43:18;99492.91;;;12.22;49.04
67740;BME280;54536;50.090;14.420;2023-12-28T11:45:50;99501.50;;;12.24;49.16
67740;BME280;54536;50.090;14.420;2023-12-28T11:48:27;99497.47;;;12.30;48.74
67740;BME280;54536;50.090;14.420;2023-12-28T11:50:56;99504.22;;;12.32;48.76
67740;BME280;54536;50.090;14.420;2023-12-28T11:53:23;99496.78;;;12.28;48.82
67740;BME280;54536;50.090;14.420;2023-12-28T11:55:51;99490.19;;;12.41;48.93
67740;BME280;54536;50.090;14.420;2023-12-28T11:58:18;99479.38;;;12.35;48.43
67740;BME280;54536;50.090;14.420;2023-12-28T12:00:44;99476.50;;;12.28;48.59
67740;BME280;54536;50.090;14.420;2023-12-28T12:03:12;99478.16;;;12.29;48.88
67740;BME280;54536;50.090;14.420;2023-12-28T12:05:39;99478.31;;;12.28;48.67
67740;BME280;54536;50.090;14.420;2023-12-28T12:08:06;99469.28;;;12.30;48.97
67740;BME280;54536;50.090;14.420;2023-12-28T12:10:36;99467.31;;;12.32;49.13
67740;BME280;54536;50.090;14.420;2023-12-28T12:13:02;99457.63;;;12.33;48.96
67740;BME280;54536;50.090;14.420;2023-12-28T12:15:30;99461.66;;;12.27;49.48
67740;BME280;54536;50.090;14.420;2023-12-28T12:17:56;99456.28;;;12.19;49.80
67740;BME280;54536;50.090;14.420;2023-12-28T12:20:23;99458.03;;;12.28;49.57
67740;BME280;54536;50.090;14.420;2023-12-28T12:22:49;99457.66;;;12.23;49.43
67740;BME280;54536;50.090;14.420;2023-12-28T12:25:16;99462.75;;;12.34;49.87
67740;BME280;54536;50.090;14.420;2023-12-28T12:27:45;99464.63;;;12.42;49.91
67740;BME280;54536;50.090;14.420;2023-12-28T12:30:11;99468.13;;;12.43;49.44
67740;BME280;54536;50.090;14.420;2023-12-28T12:32:38;99473.13;;;12.36;49.40
67740;BME280;54536;50.090;14.420;2023-12-28T12:35:06;99474.94;;;12.35;49.62
67740;BME280;54536;50.090;14.420;2023-12-28T12:37:32;99485.72;;;12.42;49.58
67740;BME280;54536;50.090;14.420;2023-12-28T12:39:59;99487.66;;;12.50;50.65
67740;BME280;54536;50.090;14.420;2023-12-28T12:42:25;99479.06;;;12.48;50.97
67740;BME280;54536;50.090;14.420;2023-12-28T12:44:51;99478.34;;;12.46;50.56
67740;BME280;54536;50.090;14.420;2023-12-28T12:47:17;99485.16;;;12.48;50.55
67740;BME280;54536;50.090;14.420;2023-12-28T12:49:43;99490.44;;;12.48;50.63
67740;BME280;54536;50.090;14.420;2023-12-28T12:52:10;99496.16;;;12.44;51.07
67740;BME280;54536;50.090;14.420;2023-12-28T12:54:36;99488.03;;;12.55;50.89
67740;BME280;54536;50.090;14.420;2023-12-28T12:57:02;99494.19;;;12.46;51.24
67740;BME280;54536;50.090;14.420;2023-12-28T12:59:29;99483.38;;;12.39;51.36
67740;BME280;54536;50.090;14.420;2023-12-28T13:01:56;99479.09;;;12.38;51.19